Time,TemperatureF,DewpointF,PressureIn,WindDirection,WindDirectionDegrees,WindSpeedMPH,WindSpeedGustMPH,Humidity,HourlyPrecipIn,Conditions,Clouds,dailyrainin,SoftwareType,DateUTC
2013-02-07 06:50:00,17.1,8.4,30.46,ENE,63,0.0,0.0,68,0.00,,,0.00,WeatherTracker,2013-02-07 11:50:00,
2013-02-07 06:55:00,17.2,7.8,30.45,East,98,1.0,0.0,66,0.00,,,0.00,WeatherTracker,2013-02-07 11:55:00,
2013-02-07 07:00:00,17.3,7.2,30.46,NE,35,1.0,0.0,64,0.00,,,0.00,WeatherTracker,2013-02-07 12:00:00,
2013-02-07 07:05:00,17.3,7.6,30.46,NE,38,1.0,0.0,65,0.00,,,0.00,WeatherTracker,2013-02-07 12:05:00,
2013-02-07 07:10:00,17.4,8.3,30.46,WNW,300,1.0,0.0,67,0.00,,,0.00,WeatherTracker,2013-02-07 12:10:00,
2013-02-07 07:15:00,17.4,8.0,30.46,WNW,302,0.0,0.0,66,0.00,,,0.00,WeatherTracker,2013-02-07 12:15:00,
2013-02-07 07:20:00,17.4,7.3,30.47,NNE,25,1.0,0.0,64,0.00,,,0.00,WeatherTracker,2013-02-07 12:20:00,
2013-02-07 07:25:00,17.7,6.9,30.47,ENE,74,1.0,0.0,62,0.00,,,0.00,WeatherTracker,2013-02-07 12:25:00,
2013-02-07 07:35:00,18.3,6.8,30.47,East,80,2.0,0.0,60,0.00,,,0.00,WeatherTracker,2013-02-07 12:35:00,
2013-02-07 07:45:00,18.9,7.0,30.48,NW,311,0.0,0.0,59,0.00,,,0.00,WeatherTracker,2013-02-07 12:45:00,
2013-02-07 07:50:00,19.3,6.2,30.49,SE,124,1.0,0.0,56,0.00,,,0.00,WeatherTracker,2013-02-07 12:50:00,
2013-02-07 07:55:00,19.7,6.2,30.49,ENE,57,1.0,0.0,55,0.00,,,0.00,WeatherTracker,2013-02-07 12:55:00,
2013-02-07 08:05:00,20.4,6.0,30.50,NNE,19,1.0,0.0,53,0.00,,,0.00,WeatherTracker,2013-02-07 13:05:00,
2013-02-07 08:15:00,21.1,6.3,30.50,NNE,15,2.0,0.0,52,0.00,,,0.00,WeatherTracker,2013-02-07 13:15:00,
2013-02-07 08:20:00,21.4,6.1,30.50,East,82,2.0,0.0,51,0.00,,,0.00,WeatherTracker,2013-02-07 13:20:00,
2013-02-07 08:25:00,21.4,5.2,30.50,NE,36,3.0,0.0,49,0.00,,,0.00,WeatherTracker,2013-02-07 13:25:00,
2013-02-07 08:35:00,21.9,6.1,30.51,NNE,13,0.0,0.0,50,0.00,,,0.00,WeatherTracker,2013-02-07 13:35:00,
2013-02-07 08:40:00,22.0,5.8,30.51,NNE,12,2.0,0.0,49,0.00,,,0.00,WeatherTracker,2013-02-07 13:40:00,
2013-02-07 08:50:00,22.2,5.5,30.51,NNW,338,4.0,0.0,48,0.00,,,0.00,WeatherTracker,2013-02-07 13:50:00,
2013-02-07 08:55:00,22.4,5.3,30.51,NE,46,3.0,0.0,47,0.00,,,0.00,WeatherTracker,2013-02-07 13:55:00,
2013-02-07 09:00:00,22.7,5.1,30.51,NNE,12,2.0,0.0,46,0.00,,,0.00,WeatherTracker,2013-02-07 14:00:00,
2013-02-07 09:05:00,23.0,5.8,30.51,NNW,329,3.0,0.0,47,0.00,,,0.00,WeatherTracker,2013-02-07 14:05:00,
2013-02-07 09:15:00,23.4,5.7,30.51,NNE,27,1.0,0.0,46,0.00,,,0.00,WeatherTracker,2013-02-07 14:15:00,
2013-02-07 09:20:00,23.8,6.1,30.52,North,11,1.0,0.0,46,0.00,,,0.00,WeatherTracker,2013-02-07 14:20:00,
2013-02-07 09:25:00,24.2,6.0,30.51,NNW,327,0.0,0.0,45,0.00,,,0.00,WeatherTracker,2013-02-07 14:25:00,
2013-02-07 09:30:00,24.8,6.5,30.51,ENE,78,4.0,0.0,45,0.00,,,0.00,WeatherTracker,2013-02-07 14:30:00,
2013-02-07 09:40:00,25.1,5.8,30.51,SSW,198,0.0,0.0,43,0.00,,,0.00,WeatherTracker,2013-02-07 14:40:00,
2013-02-07 09:50:00,25.4,5.0,30.52,East,95,1.0,0.0,41,0.00,,,0.00,WeatherTracker,2013-02-07 14:50:00,
2013-02-07 09:55:00,25.5,4.0,30.52,ENE,59,1.0,0.0,39,0.00,,,0.00,WeatherTracker,2013-02-07 14:55:00,
2013-02-07 10:05:00,26.0,5.0,30.52,North,349,4.0,0.0,40,0.00,,,0.00,WeatherTracker,2013-02-07 15:05:00,
2013-02-07 10:15:00,26.6,4.5,30.53,NE,52,2.0,0.0,38,0.00,,,0.00,WeatherTracker,2013-02-07 15:15:00,
2013-02-07 10:20:00,26.9,4.7,30.52,NNW,340,4.0,0.0,38,0.00,,,0.00,WeatherTracker,2013-02-07 15:20:00,
2013-02-07 10:25:00,26.9,4.7,30.52,NNW,344,1.0,0.0,38,0.00,,,0.00,WeatherTracker,2013-02-07 15:25:00,
2013-02-07 10:35:00,27.3,4.5,30.53,NE,46,3.0,0.0,37,0.00,,,0.00,WeatherTracker,2013-02-07 15:35:00,
2013-02-07 10:45:00,27.6,3.6,30.53,NW,315,5.0,0.0,35,0.00,,,0.00,WeatherTracker,2013-02-07 15:45:00,
2013-02-07 10:50:00,27.8,3.7,30.53,NW,321,1.0,0.0,35,0.00,,,0.00,WeatherTracker,2013-02-07 15:50:00,
2013-02-07 10:55:00,27.9,3.8,30.53,WNW,296,3.0,0.0,35,0.00,,,0.00,WeatherTracker,2013-02-07 15:55:00,
2013-02-07 11:00:00,28.0,3.9,30.53,North,351,2.0,0.0,35,0.00,,,0.00,WeatherTracker,2013-02-07 16:00:00,
2013-02-07 11:05:00,28.3,4.2,30.53,NNE,33,1.0,0.0,35,0.00,,,0.00,WeatherTracker,2013-02-07 16:05:00,
2013-02-07 11:10:00,28.7,4.5,30.52,North,11,5.0,0.0,35,0.00,,,0.00,WeatherTracker,2013-02-07 16:10:00,
2013-02-07 11:20:00,28.3,3.6,30.52,North,360,2.0,0.0,34,0.00,,,0.00,WeatherTracker,2013-02-07 16:20:00,
2013-02-07 11:25:00,28.3,4.2,30.52,East,98,5.0,0.0,35,0.00,,,0.00,WeatherTracker,2013-02-07 16:25:00,
2013-02-07 11:35:00,28.9,4.1,30.52,East,101,6.0,0.0,34,0.00,,,0.00,WeatherTracker,2013-02-07 16:35:00,
2013-02-07 11:40:00,28.5,3.7,30.52,SE,127,4.0,0.0,34,0.00,,,0.00,WeatherTracker,2013-02-07 16:40:00,
2013-02-07 11:50:00,28.9,4.1,30.51,ESE,112,3.0,0.0,34,0.00,,,0.00,WeatherTracker,2013-02-07 16:50:00,
2013-02-07 11:55:00,29.2,3.7,30.51,ENE,61,7.0,0.0,33,0.00,,,0.00,WeatherTracker,2013-02-07 16:55:00,
2013-02-07 12:00:00,29.3,3.8,30.51,NE,56,2.0,0.0,33,0.00,,,0.00,WeatherTracker,2013-02-07 17:00:00,
2013-02-07 12:05:00,27.9,3.8,30.51,NW,306,1.0,0.0,35,0.00,,,0.00,WeatherTracker,2013-02-07 17:05:00,
2013-02-07 12:10:00,28.2,3.5,30.50,West,269,0.0,0.0,34,0.00,,,0.00,WeatherTracker,2013-02-07 17:10:00,
2013-02-07 12:20:00,28.5,4.4,30.50,West,264,0.0,0.0,35,0.00,,,0.00,WeatherTracker,2013-02-07 17:20:00,
2013-02-07 12:25:00,28.1,2.7,30.49,NNE,15,0.0,0.0,33,0.00,,,0.00,WeatherTracker,2013-02-07 17:25:00,
2013-02-07 12:35:00,28.8,4.0,30.49,WSW,254,1.0,0.0,34,0.00,,,0.00,WeatherTracker,2013-02-07 17:35:00,
2013-02-07 12:40:00,28.7,3.3,30.49,NNE,12,0.0,0.0,33,0.00,,,0.00,WeatherTracker,2013-02-07 17:40:00,
2013-02-07 12:50:00,29.2,3.7,30.49,WNW,292,0.0,0.0,33,0.00,,,0.00,WeatherTracker,2013-02-07 17:50:00,
2013-02-07 13:00:00,28.6,2.5,30.48,WSW,244,0.0,0.0,32,0.00,,,0.00,WeatherTracker,2013-02-07 18:00:00,
2013-02-07 13:05:00,28.4,3.7,30.49,West,276,2.0,0.0,34,0.00,,,0.00,WeatherTracker,2013-02-07 18:05:00,
2013-02-07 13:15:00,29.2,5.0,30.48,NNE,22,0.0,0.0,35,0.00,,,0.00,WeatherTracker,2013-02-07 18:15:00,
2013-02-07 13:20:00,29.4,3.9,30.48,NW,309,0.0,0.0,33,0.00,,,0.00,WeatherTracker,2013-02-07 18:20:00,
2013-02-07 13:25:00,29.4,3.9,30.48,West,261,1.0,0.0,33,0.00,,,0.00,WeatherTracker,2013-02-07 18:25:00,
2013-02-07 13:35:00,29.3,4.5,30.48,ESE,118,1.0,0.0,34,0.00,,,0.00,WeatherTracker,2013-02-07 18:35:00,
2013-02-07 13:45:00,29.4,3.9,30.48,WNW,292,0.0,0.0,33,0.00,,,0.00,WeatherTracker,2013-02-07 18:45:00,
2013-02-07 13:50:00,28.8,3.4,30.48,WSW,252,0.0,0.0,33,0.00,,,0.00,WeatherTracker,2013-02-07 18:50:00,
2013-02-07 14:00:00,29.7,4.2,30.47,West,265,0.0,0.0,33,0.00,,,0.00,WeatherTracker,2013-02-07 19:00:00,
2013-02-07 14:10:00,29.7,3.5,30.47,West,263,1.0,0.0,32,0.00,,,0.00,WeatherTracker,2013-02-07 19:10:00,
2013-02-07 14:15:00,29.4,3.2,30.47,West,263,1.0,0.0,32,0.00,,,0.00,WeatherTracker,2013-02-07 19:15:00,
2013-02-07 14:25:00,29.3,4.5,30.47,NNE,30,0.0,0.0,34,0.00,,,0.00,WeatherTracker,2013-02-07 19:25:00,
2013-02-07 14:35:00,31.6,3.8,30.46,NNE,29,2.0,0.0,30,0.00,,,0.00,WeatherTracker,2013-02-07 19:35:00,
2013-02-07 14:40:00,31.4,4.3,30.46,East,92,2.0,0.0,31,0.00,,,0.00,WeatherTracker,2013-02-07 19:40:00,
2013-02-07 14:50:00,31.0,3.9,30.47,ENE,67,2.0,0.0,31,0.00,,,0.00,WeatherTracker,2013-02-07 19:50:00,
2013-02-07 14:55:00,30.8,3.8,30.47,ESE,104,0.0,0.0,31,0.00,,,0.00,WeatherTracker,2013-02-07 19:55:00,
2013-02-07 15:00:00,30.9,3.2,30.47,NE,46,1.0,0.0,30,0.00,,,0.00,WeatherTracker,2013-02-07 20:00:00,
2013-02-07 15:05:00,30.7,3.7,30.47,East,88,0.0,0.0,31,0.00,,,0.00,WeatherTracker,2013-02-07 20:05:00,
2013-02-07 15:10:00,30.8,3.8,30.47,ESE,121,0.0,0.0,31,0.00,,,0.00,WeatherTracker,2013-02-07 20:10:00,
2013-02-07 15:15:00,31.2,4.1,30.47,East,98,3.0,0.0,31,0.00,,,0.00,WeatherTracker,2013-02-07 20:15:00,
2013-02-07 15:20:00,31.2,4.8,30.47,ESE,121,4.0,0.0,32,0.00,,,0.00,WeatherTracker,2013-02-07 20:20:00,
2013-02-07 15:30:00,31.0,3.9,30.47,ESE,111,2.0,0.0,31,0.00,,,0.00,WeatherTracker,2013-02-07 20:30:00,
2013-02-07 15:40:00,31.0,4.6,30.47,ESE,109,4.0,0.0,32,0.00,,,0.00,WeatherTracker,2013-02-07 20:40:00,
2013-02-07 15:45:00,30.8,3.8,30.47,East,92,1.0,0.0,31,0.00,,,0.00,WeatherTracker,2013-02-07 20:45:00,
2013-02-07 15:50:00,30.8,4.5,30.47,NNE,20,0.0,0.0,32,0.00,,,0.00,WeatherTracker,2013-02-07 20:50:00,
2013-02-07 15:55:00,31.1,4.0,30.47,WNW,302,2.0,0.0,31,0.00,,,0.00,WeatherTracker,2013-02-07 20:55:00,
2013-02-07 16:05:00,31.4,4.3,30.47,East,94,2.0,0.0,31,0.00,,,0.00,WeatherTracker,2013-02-07 21:05:00,
2013-02-07 16:10:00,31.3,4.2,30.47,ESE,121,0.0,0.0,31,0.00,,,0.00,WeatherTracker,2013-02-07 21:10:00,
2013-02-07 16:20:00,31.0,3.9,30.47,South,180,4.0,0.0,31,0.00,,,0.00,WeatherTracker,2013-02-07 21:20:00,
2013-02-07 16:25:00,30.6,3.6,30.47,SSE,149,1.0,0.0,31,0.00,,,0.00,WeatherTracker,2013-02-07 21:25:00,
2013-02-07 16:35:00,30.1,3.8,30.47,SW,221,2.0,0.0,32,0.00,,,0.00,WeatherTracker,2013-02-07 21:35:00,
2013-02-07 16:40:00,30.0,3.8,30.47,SW,221,2.0,0.0,32,0.00,,,0.00,WeatherTracker,2013-02-07 21:40:00,
2013-02-07 16:45:00,29.9,3.7,30.47,SE,142,5.0,0.0,32,0.00,,,0.00,WeatherTracker,2013-02-07 21:45:00,
2013-02-07 16:50:00,29.7,3.5,30.47,SSE,153,1.0,0.0,32,0.00,,,0.00,WeatherTracker,2013-02-07 21:50:00,
2013-02-07 16:55:00,29.6,6.0,30.47,SE,134,0.0,0.0,36,0.00,,,0.00,WeatherTracker,2013-02-07 21:55:00,
2013-02-07 17:00:00,26.9,3.6,30.47,NNW,345,1.0,0.0,36,0.00,,,0.00,WeatherTracker,2013-02-07 22:00:00,
2013-02-07 17:05:00,26.8,3.5,30.47,ESE,119,0.0,0.0,36,0.00,,,0.00,WeatherTracker,2013-02-07 22:05:00,
2013-02-07 17:10:00,26.7,4.5,30.47,NW,307,0.0,0.0,38,0.00,,,0.00,WeatherTracker,2013-02-07 22:10:00,
2013-02-07 17:15:00,28.9,4.1,30.48,SSE,150,1.0,0.0,34,0.00,,,0.00,WeatherTracker,2013-02-07 22:15:00,
2013-02-07 17:20:00,28.8,4.0,30.48,East,100,1.0,0.0,34,0.00,,,0.00,WeatherTracker,2013-02-07 22:20:00,
2013-02-07 17:25:00,28.6,4.5,30.48,East,79,3.0,0.0,35,0.00,,,0.00,WeatherTracker,2013-02-07 22:25:00,
2013-02-07 17:35:00,28.4,4.3,30.48,SSE,153,3.0,0.0,35,0.00,,,0.00,WeatherTracker,2013-02-07 22:35:00,
2013-02-07 17:40:00,28.3,4.2,30.48,SE,142,1.0,0.0,35,0.00,,,0.00,WeatherTracker,2013-02-07 22:40:00,
2013-02-07 17:50:00,28.2,4.7,30.48,South,179,1.0,0.0,36,0.00,,,0.00,WeatherTracker,2013-02-07 22:50:00,
2013-02-07 17:55:00,28.1,4.6,30.49,SSE,148,2.0,0.0,36,0.00,,,0.00,WeatherTracker,2013-02-07 22:55:00,
2013-02-07 18:00:00,28.1,4.6,30.49,SSE,150,1.0,0.0,36,0.00,,,0.00,WeatherTracker,2013-02-07 23:00:00,
2013-02-07 18:10:00,27.9,4.4,30.49,SSE,158,0.0,0.0,36,0.00,,,0.00,WeatherTracker,2013-02-07 23:10:00,
2013-02-07 18:20:00,27.9,5.0,30.49,ESE,123,0.0,0.0,37,0.00,,,0.00,WeatherTracker,2013-02-07 23:20:00,
2013-02-07 18:25:00,27.9,4.4,30.50,SSE,148,2.0,0.0,36,0.00,,,0.00,WeatherTracker,2013-02-07 23:25:00,
2013-02-07 18:35:00,27.8,4.4,30.50,SE,144,1.0,0.0,36,0.00,,,0.00,WeatherTracker,2013-02-07 23:35:00,
2013-02-07 18:40:00,27.7,4.3,30.50,SSE,159,0.0,0.0,36,0.00,,,0.00,WeatherTracker,2013-02-07 23:40:00,
2013-02-07 18:50:00,27.6,5.4,30.50,SE,142,1.0,0.0,38,0.00,,,0.00,WeatherTracker,2013-02-07 23:50:00,
2013-02-07 18:55:00,27.6,4.8,30.51,SE,146,2.0,0.0,37,0.00,,,0.00,WeatherTracker,2013-02-07 23:55:00,
2013-02-07 19:05:00,27.4,4.6,30.51,SE,126,3.0,0.0,37,0.00,,,0.00,WeatherTracker,2013-02-08 00:05:00,
2013-02-07 19:10:00,27.2,4.4,30.50,SE,144,2.0,0.0,37,0.00,,,0.00,WeatherTracker,2013-02-08 00:10:00,
2013-02-07 19:15:00,27.1,4.3,30.50,SSE,153,3.0,0.0,37,0.00,,,0.00,WeatherTracker,2013-02-08 00:15:00,
2013-02-07 19:20:00,27.0,4.8,30.50,ESE,115,4.0,0.0,38,0.00,,,0.00,WeatherTracker,2013-02-08 00:20:00,
2013-02-07 19:30:00,26.7,4.0,30.50,SSE,159,4.0,0.0,37,0.00,,,0.00,WeatherTracker,2013-02-08 00:30:00,
2013-02-07 19:35:00,26.7,4.0,30.50,South,183,3.0,0.0,37,0.00,,,0.00,WeatherTracker,2013-02-08 00:35:00,
2013-02-07 19:45:00,26.6,4.5,30.50,ESE,119,3.0,0.0,38,0.00,,,0.00,WeatherTracker,2013-02-08 00:45:00,
2013-02-07 19:50:00,26.5,4.4,30.50,SSE,153,2.0,0.0,38,0.00,,,0.00,WeatherTracker,2013-02-08 00:50:00,
2013-02-07 19:55:00,26.5,4.4,30.50,ESE,119,0.0,0.0,38,0.00,,,0.00,WeatherTracker,2013-02-08 00:55:00,
2013-02-07 20:05:00,26.5,3.8,30.50,ESE,123,2.0,0.0,37,0.00,,,0.00,WeatherTracker,2013-02-08 01:05:00,
2013-02-07 20:10:00,26.5,3.2,30.50,SSE,159,2.0,0.0,36,0.00,,,0.00,WeatherTracker,2013-02-08 01:10:00,
2013-02-07 20:20:00,26.5,3.8,30.50,ESE,115,0.0,0.0,37,0.00,,,0.00,WeatherTracker,2013-02-08 01:20:00,
2013-02-07 20:30:00,26.5,3.2,30.50,ESE,106,3.0,0.0,36,0.00,,,0.00,WeatherTracker,2013-02-08 01:30:00,
2013-02-07 20:35:00,26.5,3.2,30.50,East,93,0.0,0.0,36,0.00,,,0.00,WeatherTracker,2013-02-08 01:35:00,
2013-02-07 20:40:00,26.5,2.6,30.50,ESE,107,2.0,0.0,35,0.00,,,0.00,WeatherTracker,2013-02-08 01:40:00,
2013-02-07 20:45:00,26.5,2.6,30.50,SE,138,2.0,0.0,35,0.00,,,0.00,WeatherTracker,2013-02-08 01:45:00,
2013-02-07 20:55:00,26.5,3.2,30.51,ESE,105,2.0,0.0,36,0.00,,,0.00,WeatherTracker,2013-02-08 01:55:00,
2013-02-07 21:00:00,26.5,3.8,30.51,ESE,119,2.0,0.0,37,0.00,,,0.00,WeatherTracker,2013-02-08 02:00:00,
2013-02-07 21:10:00,26.5,3.8,30.50,SE,127,1.0,0.0,37,0.00,,,0.00,WeatherTracker,2013-02-08 02:10:00,
2013-02-07 21:15:00,26.5,4.4,30.50,ESE,109,0.0,0.0,38,0.00,,,0.00,WeatherTracker,2013-02-08 02:15:00,
2013-02-07 21:20:00,26.5,4.4,30.50,SSE,168,0.0,0.0,38,0.00,,,0.00,WeatherTracker,2013-02-08 02:20:00,
2013-02-07 21:25:00,26.4,4.8,30.50,ESE,109,2.0,0.0,39,0.00,,,0.00,WeatherTracker,2013-02-08 02:25:00,
2013-02-07 21:30:00,26.4,5.4,30.50,SSE,168,1.0,0.0,40,0.00,,,0.00,WeatherTracker,2013-02-08 02:30:00,
2013-02-07 21:40:00,26.4,7.0,30.50,SE,140,0.0,0.0,43,0.00,,,0.00,WeatherTracker,2013-02-08 02:40:00,
2013-02-07 21:50:00,26.5,8.1,30.50,South,186,2.0,0.0,45,0.00,,,0.00,WeatherTracker,2013-02-08 02:50:00,
2013-02-07 21:55:00,26.4,8.5,30.50,South,183,0.0,0.0,46,0.00,,,0.00,WeatherTracker,2013-02-08 02:55:00,
2013-02-07 22:00:00,26.4,8.9,30.49,South,177,1.0,0.0,47,0.00,,,0.00,WeatherTracker,2013-02-08 03:00:00,
2013-02-07 22:05:00,26.5,9.0,30.49,SSW,202,2.0,0.0,47,0.00,,,0.00,WeatherTracker,2013-02-08 03:05:00,
2013-02-07 22:10:00,26.4,9.4,30.49,South,175,2.0,0.0,48,0.00,,,0.00,WeatherTracker,2013-02-08 03:10:00,
2013-02-07 22:20:00,26.4,9.9,30.49,SSE,154,0.0,0.0,49,0.00,,,0.00,WeatherTracker,2013-02-08 03:20:00,
2013-02-07 22:25:00,26.4,9.9,30.49,South,181,0.0,0.0,49,0.00,,,0.00,WeatherTracker,2013-02-08 03:25:00,
2013-02-07 22:35:00,26.4,10.3,30.49,SSW,192,4.0,0.0,50,0.00,,,0.00,WeatherTracker,2013-02-08 03:35:00,
2013-02-07 22:45:00,26.4,10.8,30.49,SW,221,2.0,0.0,51,0.00,,,0.00,WeatherTracker,2013-02-08 03:45:00,
2013-02-07 22:50:00,26.3,10.7,30.49,SW,221,4.0,0.0,51,0.00,,,0.00,WeatherTracker,2013-02-08 03:50:00,
2013-02-07 22:55:00,26.3,11.1,30.49,SSW,198,3.0,0.0,52,0.00,,,0.00,WeatherTracker,2013-02-08 03:55:00,
2013-02-07 23:00:00,26.3,11.5,30.49,SW,228,4.0,0.0,53,0.00,,,0.00,WeatherTracker,2013-02-08 04:00:00,
2013-02-07 23:10:00,26.3,11.9,30.50,South,175,2.0,0.0,54,0.00,,,0.00,WeatherTracker,2013-02-08 04:10:00,
2013-02-07 23:20:00,26.3,12.4,30.50,SW,229,1.0,0.0,55,0.00,,,0.00,WeatherTracker,2013-02-08 04:20:00,
2013-02-07 23:25:00,26.3,12.8,30.50,WSW,237,2.0,0.0,56,0.00,,,0.00,WeatherTracker,2013-02-08 04:25:00,
2013-02-07 23:35:00,26.1,13.0,30.49,SSW,202,2.0,0.0,57,0.00,,,0.00,WeatherTracker,2013-02-08 04:35:00,
2013-02-07 23:40:00,26.1,13.0,30.49,South,173,2.0,0.0,57,0.00,,,0.00,WeatherTracker,2013-02-08 04:40:00,
2013-02-07 23:50:00,26.0,13.3,30.49,SSW,206,0.0,0.0,58,0.00,,,0.00,WeatherTracker,2013-02-08 04:50:00,
2013-02-07 23:55:00,25.9,13.2,30.50,SSW,205,1.0,0.0,58,0.00,,,0.00,WeatherTracker,2013-02-08 04:55:00,